createdAt,value
2023-12-27T00:02:03.373Z,1.60
2023-12-27T00:04:36.219Z,1.47
2023-12-27T00:07:08.972Z,1.93
2023-12-27T00:09:43.087Z,1.60
2023-12-27T00:12:16.105Z,1.63
2023-12-27T00:14:48.882Z,1.47
2023-12-27T00:17:21.814Z,1.63
2023-12-27T00:19:54.606Z,1.77
2023-12-27T00:22:27.419Z,2.27
2023-12-27T00:25:01.959Z,1.40
2023-12-27T00:27:34.818Z,1.87
2023-12-27T00:30:08.703Z,2.13
2023-12-27T00:33:07.983Z,1.70
2023-12-27T00:35:40.759Z,1.60
2023-12-27T00:38:13.454Z,1.67
2023-12-27T00:40:47.519Z,1.67
2023-12-27T00:43:20.239Z,2.13
2023-12-27T00:45:55.454Z,1.37
2023-12-27T00:48:28.187Z,2.03
2023-12-27T00:51:02.860Z,1.80
2023-12-27T00:53:35.668Z,1.43
2023-12-27T00:56:10.058Z,2.20
2023-12-27T00:58:42.706Z,1.83
2023-12-27T01:01:18.554Z,1.63
2023-12-27T01:03:51.628Z,1.90
2023-12-27T01:06:24.575Z,1.80
2023-12-27T01:08:57.406Z,1.90
2023-12-27T01:11:31.436Z,2.20
2023-12-27T01:14:04.417Z,1.90
2023-12-27T01:16:39.580Z,1.60
2023-12-27T01:19:16.674Z,1.90
2023-12-27T01:21:49.482Z,1.90
2023-12-27T01:24:25.391Z,1.70
2023-12-27T01:26:59.739Z,2.00
2023-12-27T01:29:34.810Z,2.27
2023-12-27T01:32:10.655Z,1.23
2023-12-27T01:34:43.488Z,1.53
2023-12-27T01:37:16.323Z,1.30
2023-12-27T01:39:52.536Z,1.90
2023-12-27T01:42:26.627Z,1.80
2023-12-27T01:44:59.535Z,1.87
2023-12-27T01:47:32.385Z,1.67
2023-12-27T01:50:07.580Z,1.97
2023-12-27T01:52:40.996Z,1.57
2023-12-27T01:55:13.832Z,1.43
2023-12-27T01:57:48.145Z,2.00
2023-12-27T02:00:21.178Z,1.43
2023-12-27T02:02:57.083Z,1.60
2023-12-27T02:05:30.235Z,1.77
2023-12-27T02:08:07.391Z,1.57
2023-12-27T02:10:42.583Z,2.00
2023-12-27T02:13:16.660Z,1.20
2023-12-27T02:15:51.827Z,1.90
2023-12-27T02:18:25.093Z,1.60
2023-12-27T02:20:59.247Z,1.33
2023-12-27T02:23:34.265Z,2.10
2023-12-27T02:26:08.839Z,1.77
2023-12-27T02:28:41.629Z,2.03
2023-12-27T02:31:16.951Z,1.93
2023-12-27T02:33:49.965Z,1.70
2023-12-27T02:36:22.746Z,1.53
2023-12-27T02:38:55.530Z,1.67
2023-12-27T02:41:29.821Z,1.47
2023-12-27T02:44:02.904Z,1.30
2023-12-27T02:46:37.609Z,1.77
2023-12-27T02:49:10.581Z,2.00
2023-12-27T02:51:46.236Z,2.00
2023-12-27T02:54:19.072Z,1.13
2023-12-27T02:56:55.207Z,2.37
2023-12-27T02:59:27.953Z,1.40
2023-12-27T03:02:02.710Z,1.87
2023-12-27T03:04:41.955Z,1.63
2023-12-27T03:07:16.901Z,1.60
2023-12-27T03:09:49.684Z,2.07
2023-12-27T03:12:24.292Z,1.90
2023-12-27T03:14:57.041Z,1.37
2023-12-27T03:17:32.798Z,2.97
2023-12-27T03:20:07.096Z,2.17
2023-12-27T03:22:39.872Z,1.80
2023-12-27T03:25:12.697Z,1.77
2023-12-27T03:27:46.741Z,1.97
2023-12-27T03:30:19.645Z,2.13
2023-12-27T03:32:55.535Z,1.93
2023-12-27T03:35:28.438Z,1.70
2023-12-27T03:38:03.699Z,1.93
2023-12-27T03:40:36.537Z,1.73
2023-12-27T03:43:13.118Z,2.00
2023-12-27T03:45:46.413Z,1.70
2023-12-27T03:48:19.199Z,1.97
2023-12-27T03:50:52.154Z,1.60
2023-12-27T03:53:27.324Z,1.57
2023-12-27T03:56:00.009Z,1.40
2023-12-27T03:58:36.840Z,2.20
2023-12-27T04:01:11.869Z,1.87
2023-12-27T04:03:45.684Z,1.20
2023-12-27T04:06:19.032Z,1.63
2023-12-27T04:08:54.365Z,2.23
2023-12-27T04:11:27.180Z,1.83
2023-12-27T04:14:01.345Z,1.43
2023-12-27T04:16:34.011Z,2.07
2023-12-27T04:19:07.037Z,1.50
2023-12-27T04:21:39.959Z,1.63
2023-12-27T04:24:15.468Z,2.27
2023-12-27T04:26:48.240Z,1.60
2023-12-27T04:29:24.930Z,1.57
2023-12-27T04:31:57.734Z,1.60
2023-12-27T04:34:40.077Z,1.97
2023-12-27T04:37:13.063Z,1.77
2023-12-27T04:39:45.869Z,1.80
2023-12-27T04:42:18.706Z,1.60
2023-12-27T04:44:53.108Z,1.70
2023-12-27T04:47:25.937Z,1.63
2023-12-27T04:50:06.831Z,2.07
2023-12-27T04:52:42.461Z,2.00
2023-12-27T04:55:17.381Z,2.00
2023-12-27T04:57:50.074Z,1.57
2023-12-27T05:00:24.878Z,1.90
2023-12-27T05:02:59.756Z,1.90
2023-12-27T05:05:33.424Z,1.90
2023-12-27T05:08:08.447Z,2.27
2023-12-27T05:10:41.125Z,1.50
2023-12-27T05:13:14.726Z,1.67
2023-12-27T05:15:49.809Z,1.67
2023-12-27T05:18:22.740Z,1.70
2023-12-27T05:20:57.744Z,1.57
2023-12-27T05:23:30.491Z,2.13
2023-12-27T05:26:03.501Z,2.00
2023-12-27T05:28:39.282Z,2.20
2023-12-27T05:31:14.386Z,1.93
2023-12-27T05:33:50.800Z,1.77
2023-12-27T05:36:24.579Z,2.13
2023-12-27T05:38:57.442Z,1.90
2023-12-27T05:41:30.123Z,2.13
2023-12-27T05:44:03.173Z,1.90
2023-12-27T05:46:39.648Z,1.67
2023-12-27T05:49:13.493Z,3.07
2023-12-27T05:51:46.248Z,1.97
2023-12-27T05:54:19.611Z,2.40
2023-12-27T05:56:52.443Z,2.40
2023-12-27T05:59:25.060Z,2.23
2023-12-27T06:01:59.255Z,2.63
2023-12-27T06:04:31.963Z,1.50
2023-12-27T06:07:04.881Z,1.93
2023-12-27T06:09:37.671Z,1.93
2023-12-27T06:12:10.804Z,1.77
2023-12-27T06:14:43.786Z,1.70
2023-12-27T06:17:20.399Z,1.80
2023-12-27T06:19:53.052Z,1.77
2023-12-27T06:22:25.977Z,2.53
2023-12-27T06:25:02.910Z,2.40
2023-12-27T06:27:35.859Z,2.53
2023-12-27T06:30:09.461Z,1.70
2023-12-27T06:32:43.968Z,2.03
2023-12-27T06:35:16.779Z,2.40
2023-12-27T06:37:49.624Z,1.80
2023-12-27T06:40:22.334Z,1.80
2023-12-27T06:42:55.006Z,2.10
2023-12-27T06:45:27.770Z,2.73
2023-12-27T06:48:03.928Z,2.03
2023-12-27T06:50:36.739Z,2.50
2023-12-27T06:53:09.470Z,2.60
2023-12-27T06:55:42.358Z,2.17
2023-12-27T06:58:15.185Z,1.97
2023-12-27T07:00:48.116Z,1.93
2023-12-27T07:03:24.409Z,1.57
2023-12-27T07:06:00.464Z,1.90
2023-12-27T07:08:33.491Z,1.63
2023-12-27T07:11:06.164Z,2.13
2023-12-27T07:13:38.806Z,2.10
2023-12-27T07:16:11.508Z,2.50
2023-12-27T07:18:45.929Z,2.70
2023-12-27T07:21:18.688Z,1.87
2023-12-27T07:23:51.590Z,1.57
2023-12-27T07:26:25.545Z,1.80
2023-12-27T07:29:00.855Z,2.27
2023-12-27T07:31:33.626Z,2.70
2023-12-27T07:34:16.852Z,1.77
2023-12-27T07:36:49.689Z,2.10
2023-12-27T07:39:24.916Z,2.20
2023-12-27T07:41:57.746Z,1.50
2023-12-27T07:44:30.489Z,2.43
2023-12-27T07:47:05.381Z,1.97
2023-12-27T07:49:42.527Z,2.17
2023-12-27T07:52:15.248Z,2.20
2023-12-27T07:54:48.141Z,2.17
2023-12-27T07:57:23.514Z,2.73
2023-12-27T07:59:59.046Z,2.30
2023-12-27T08:02:31.813Z,3.13
2023-12-27T08:05:06.359Z,2.20
2023-12-27T08:07:42.269Z,2.80
2023-12-27T08:10:16.210Z,1.97
2023-12-27T08:12:49.002Z,2.67
2023-12-27T08:15:21.646Z,2.60
2023-12-27T08:17:54.492Z,3.57
2023-12-27T08:20:28.778Z,2.50
2023-12-27T08:23:04.041Z,2.60
2023-12-27T08:25:40.258Z,2.20
2023-12-27T08:28:13.019Z,2.63
2023-12-27T08:30:47.647Z,2.83
2023-12-27T08:33:20.633Z,2.40
2023-12-27T08:35:54.831Z,2.57
2023-12-27T08:38:27.690Z,2.23
2023-12-27T08:41:00.475Z,2.90
2023-12-27T08:43:34.498Z,2.50
2023-12-27T08:46:09.892Z,2.67
2023-12-27T08:48:42.851Z,2.90
2023-12-27T08:51:17.256Z,2.50
2023-12-27T08:53:50.001Z,2.73
2023-12-27T08:56:22.936Z,2.73
2023-12-27T08:58:55.665Z,2.97
2023-12-27T09:01:33.086Z,2.70
2023-12-27T09:04:06.146Z,2.73
2023-12-27T09:06:42.646Z,2.67
2023-12-27T09:09:15.489Z,2.93
2023-12-27T09:11:49.211Z,2.23
2023-12-27T09:14:25.640Z,2.30
2023-12-27T09:16:58.440Z,1.97
2023-12-27T09:19:31.394Z,2.70
2023-12-27T09:22:07.462Z,2.50
2023-12-27T09:24:42.496Z,2.50
2023-12-27T09:27:19.128Z,3.00
2023-12-27T09:29:53.373Z,2.60
2023-12-27T09:32:26.989Z,3.00
2023-12-27T09:34:59.794Z,3.13
2023-12-27T09:37:33.964Z,3.10
2023-12-27T09:40:07.745Z,2.80
2023-12-27T09:42:43.538Z,2.40
2023-12-27T09:45:17.185Z,2.70
2023-12-27T09:47:55.124Z,2.70
2023-12-27T09:50:28.205Z,2.50
2023-12-27T09:53:03.909Z,2.90
2023-12-27T09:55:36.626Z,2.30
2023-12-27T09:58:09.518Z,2.43
2023-12-27T10:00:45.092Z,2.97
2023-12-27T10:03:23.877Z,2.23
2023-12-27T10:06:00.712Z,2.47
2023-12-27T10:08:35.277Z,2.77
2023-12-27T10:11:10.198Z,2.70
2023-12-27T10:13:43.501Z,3.47
2023-12-27T10:16:16.316Z,2.87
2023-12-27T10:18:49.246Z,2.60
2023-12-27T10:21:22.151Z,2.67
2023-12-27T10:23:56.431Z,2.47
2023-12-27T10:26:29.112Z,2.47
2023-12-27T10:29:02.018Z,2.77
2023-12-27T10:31:34.804Z,3.17
2023-12-27T10:34:09.795Z,2.17
2023-12-27T10:36:43.973Z,2.60
2023-12-27T10:39:19.035Z,2.43
2023-12-27T10:41:53.819Z,2.60
2023-12-27T10:44:29.015Z,2.90
2023-12-27T10:47:04.379Z,2.97
2023-12-27T10:49:38.063Z,2.90
2023-12-27T10:52:12.069Z,2.80
2023-12-27T10:54:47.078Z,2.67
2023-12-27T10:57:20.777Z,3.03
2023-12-27T10:59:54.290Z,2.77
2023-12-27T11:02:27.340Z,2.37
2023-12-27T11:05:06.409Z,2.67
2023-12-27T11:07:41.386Z,2.97
2023-12-27T11:10:17.193Z,2.87
2023-12-27T11:12:52.577Z,2.43
2023-12-27T11:15:50.695Z,2.27
2023-12-27T11:18:23.475Z,2.60
2023-12-27T11:20:58.151Z,2.70
2023-12-27T11:23:33.954Z,2.50
2023-12-27T11:26:11.012Z,2.03
2023-12-27T11:28:47.181Z,2.50
2023-12-27T11:31:21.423Z,2.67
2023-12-27T11:33:54.963Z,2.67
2023-12-27T11:36:27.810Z,2.67
2023-12-27T11:39:04.493Z,2.10
2023-12-27T11:41:39.586Z,2.40
2023-12-27T11:44:16.220Z,2.10
2023-12-27T11:46:48.880Z,2.30
2023-12-27T11:49:24.334Z,2.47
2023-12-27T11:52:00.712Z,3.23
2023-12-27T11:54:34.915Z,2.40
2023-12-27T11:57:11.481Z,2.70
2023-12-27T11:59:44.633Z,2.73
2023-12-27T12:02:23.917Z,2.80
2023-12-27T12:05:01.760Z,3.33
2023-12-27T12:07:46.785Z,3.30
2023-12-27T12:10:23.144Z,3.37
2023-12-27T12:13:00.067Z,3.40
2023-12-27T12:15:33.086Z,3.23
2023-12-27T12:18:06.137Z,3.33
2023-12-27T12:20:38.916Z,2.97
2023-12-27T12:23:12.267Z,4.73
2023-12-27T12:25:45.838Z,4.50
2023-12-27T12:28:20.010Z,3.70
2023-12-27T12:30:53.667Z,3.67
2023-12-27T12:33:29.154Z,3.87
2023-12-27T12:36:06.566Z,3.63
2023-12-27T12:38:39.382Z,3.63
2023-12-27T12:41:12.756Z,3.67
2023-12-27T12:43:50.916Z,3.53
2023-12-27T12:46:23.665Z,3.77
2023-12-27T12:49:00.039Z,3.30
2023-12-27T12:51:33.019Z,3.30
2023-12-27T12:54:09.250Z,3.53
2023-12-27T12:56:42.188Z,2.97
2023-12-27T12:59:17.930Z,3.00
2023-12-27T13:01:50.743Z,2.97
2023-12-27T13:04:25.369Z,2.93
2023-12-27T13:07:07.948Z,2.90
2023-12-27T13:10:01.060Z,3.00
2023-12-27T13:12:39.723Z,2.80
2023-12-27T13:15:20.704Z,2.77
2023-12-27T13:17:54.028Z,3.40
2023-12-27T13:20:26.962Z,4.40
2023-12-27T13:22:59.686Z,4.20
2023-12-27T13:25:32.586Z,3.70
2023-12-27T13:28:11.190Z,3.60
2023-12-27T13:30:46.362Z,3.30
2023-12-27T13:33:19.425Z,3.63
2023-12-27T13:35:53.723Z,3.77
